Time;durP1;ratioP1;P1;durP2;ratioP2;P2;SDS_P1;SDS_P2;PMS_P1;PMS_P2;Temp;Humidity;BMP_temperature;BMP_pressure;BME280_temperature;BME280_humidity;BME280_pressure;Samples;Min_cycle;Max_cycle;Signal;HPM_P1;HPM_P2
2021/08/06 00:01:26;;;;;;;1.77;1.40;;;15.70;99.90;;;;;;5118059;28;20421;-43
2021/08/06 00:03:53;;;;;;;1.53;1.33;;;15.70;99.90;;;;;;5118502;28;20203;-43
2021/08/06 00:06:20;;;;;;;2.10;1.17;;;15.60;99.90;;;;;;5101356;28;20447;-42
2021/08/06 00:08:45;;;;;;;2.30;1.37;;;15.60;99.90;;;;;;5119437;28;20776;-43
2021/08/06 00:11:11;;;;;;;2.17;1.70;;;15.60;99.90;;;;;;5119246;28;20429;-43
2021/08/06 00:13:37;;;;;;;1.70;1.50;;;15.50;99.90;;;;;;5119079;28;20191;-43
2021/08/06 00:16:03;;;;;;;1.63;1.53;;;15.50;99.90;;;;;;5119011;28;20421;-43
2021/08/06 00:18:29;;;;;;;1.90;1.63;;;15.50;99.90;;;;;;5118675;28;20274;-43
2021/08/06 00:20:55;;;;;;;4.17;1.50;;;15.50;99.90;;;;;;5118099;28;20572;-43
2021/08/06 00:23:21;;;;;;;2.07;1.40;;;15.50;99.90;;;;;;5118123;28;20232;-43
2021/08/06 00:25:47;;;;;;;1.27;1.17;;;15.50;99.90;;;;;;5117952;28;20433;-43
2021/08/06 00:28:13;;;;;;;2.23;1.47;;;15.40;99.90;;;;;;5118024;28;20508;-43
2021/08/06 00:30:38;;;;;;;1.90;1.50;;;15.50;99.90;;;;;;5099954;28;20654;-43
2021/08/06 00:33:05;;;;;;;2.17;1.33;;;15.40;99.90;;;;;;5118768;28;20439;-43
2021/08/06 00:35:30;;;;;;;1.63;1.47;;;15.40;99.90;;;;;;5118623;28;20569;-43
2021/08/06 00:37:56;;;;;;;6.23;2.57;;;15.40;99.90;;;;;;5118595;28;20919;-43
2021/08/06 00:40:23;;;;;;;2.23;1.30;;;15.40;99.90;;;;;;5118739;28;20474;-43
2021/08/06 00:42:50;;;;;;;1.63;1.30;;;15.30;99.90;;;;;;5118729;28;20209;-43
2021/08/06 00:45:15;;;;;;;2.03;1.50;;;15.40;99.90;;;;;;5118548;28;20440;-42
2021/08/06 00:47:41;;;;;;;1.47;1.33;;;15.30;99.90;;;;;;5118555;28;20417;-43
2021/08/06 00:50:11;;;;;;;3.13;1.47;;;15.20;99.90;;;;;;5109921;28;20194;-43
2021/08/06 00:52:37;;;;;;;1.90;1.40;;;15.20;99.90;;;;;;5097315;28;20426;-43
2021/08/06 00:55:06;;;;;;;1.60;1.37;;;15.10;99.90;;;;;;5103949;28;20509;-44
2021/08/06 00:57:32;;;;;;;2.27;1.50;;;15.10;99.90;;;;;;5117268;28;20448;-43
2021/08/06 00:59:58;;;;;;;1.43;1.33;;;15.10;99.90;;;;;;5118077;28;20569;-43
2021/08/06 01:02:27;;;;;;;2.17;1.40;;;15.00;99.90;;;;;;5118599;28;20425;-44
2021/08/06 01:05:06;;;;;;;1.77;1.50;;;15.00;99.90;;;;;;5118789;28;20413;-44
2021/08/06 01:07:57;;;;;;;3.10;2.20;;;15.10;99.90;;;;;;5118938;28;20462;-43
2021/08/06 01:10:25;;;;;;;2.17;1.60;;;15.10;99.90;;;;;;5118746;28;20421;-43
2021/08/06 01:12:54;;;;;;;2.80;1.60;;;15.10;99.90;;;;;;5100601;28;20823;-43
2021/08/06 01:15:21;;;;;;;4.53;1.80;;;15.10;99.90;;;;;;5118729;28;20436;-44
2021/08/06 01:17:46;;;;;;;3.10;2.03;;;15.10;99.90;;;;;;5100303;28;20448;-43
2021/08/06 01:20:29;;;;;;;2.20;1.90;;;15.10;99.90;;;;;;5100502;28;20883;-43
2021/08/06 01:23:03;;;;;;;2.03;1.77;;;15.00;99.90;;;;;;5083366;28;20190;-41
2021/08/06 01:25:30;;;;;;;2.83;1.50;;;15.00;99.90;;;;;;5118646;28;20417;-43
2021/08/06 01:27:56;;;;;;;2.00;1.57;;;15.10;99.90;;;;;;5100670;28;20825;-43
2021/08/06 01:30:22;;;;;;;1.60;1.47;;;15.00;99.90;;;;;;5100063;28;20429;-43
2021/08/06 01:32:47;;;;;;;1.90;1.70;;;15.00;99.90;;;;;;5118307;28;20187;-43
2021/08/06 01:35:13;;;;;;;2.10;1.70;;;15.00;99.90;;;;;;5118410;28;20425;-43
2021/08/06 01:37:39;;;;;;;2.17;1.73;;;15.10;99.90;;;;;;5118238;28;20183;-43
2021/08/06 01:40:07;;;;;;;1.90;1.80;;;15.00;99.90;;;;;;5118174;28;20211;-43
2021/08/06 01:42:47;;;;;;;1.90;1.50;;;15.00;99.90;;;;;;5100528;28;20197;-43
2021/08/06 01:45:22;;;;;;;2.00;1.83;;;15.00;99.90;;;;;;5099941;28;20437;-43
2021/08/06 01:47:52;;;;;;;2.60;1.63;;;15.00;99.90;;;;;;5118290;28;20413;-43
2021/08/06 01:50:24;;;;;;;2.00;1.80;;;15.00;99.90;;;;;;5117947;28;20453;-42
2021/08/06 01:52:59;;;;;;;1.50;1.33;;;15.10;99.90;;;;;;5118350;28;20424;-43
2021/08/06 01:55:29;;;;;;;2.50;1.60;;;15.10;99.90;;;;;;5100897;28;20845;-45
2021/08/06 01:57:56;;;;;;;1.97;1.67;;;15.20;99.90;;;;;;5100162;28;20448;-43
2021/08/06 02:00:21;;;;;;;1.80;1.70;;;15.20;99.90;;;;;;5100197;28;20530;-43
2021/08/06 02:02:47;;;;;;;3.17;1.67;;;15.20;99.90;;;;;;5117692;28;20425;-44
2021/08/06 02:05:14;;;;;;;2.73;1.83;;;15.20;99.90;;;;;;5118168;28;20247;-43
2021/08/06 02:07:40;;;;;;;3.07;1.87;;;15.20;99.90;;;;;;5117640;28;20501;-42
2021/08/06 02:10:07;;;;;;;3.30;2.07;;;15.20;99.90;;;;;;5121940;28;20445;-42
2021/08/06 02:12:33;;;;;;;2.40;2.00;;;15.30;99.90;;;;;;5122204;28;20708;-43
2021/08/06 02:14:59;;;;;;;3.80;2.10;;;15.30;99.90;;;;;;5104195;28;20488;-43
2021/08/06 02:17:25;;;;;;;1.70;1.50;;;15.40;99.90;;;;;;5122488;28;20433;-43
2021/08/06 02:19:51;;;;;;;2.27;2.07;;;15.40;99.90;;;;;;5104187;28;20211;-43
2021/08/06 02:22:18;;;;;;;2.57;2.07;;;15.50;99.90;;;;;;5103528;28;20405;-42
2021/08/06 02:24:44;;;;;;;2.70;2.10;;;15.50;99.90;;;;;;5103737;28;20529;-43
2021/08/06 02:27:15;;;;;;;1.70;1.60;;;15.50;99.90;;;;;;5103804;28;20485;-43
2021/08/06 02:29:42;;;;;;;1.70;1.53;;;15.50;99.90;;;;;;5103643;28;20433;-43
2021/08/06 02:32:08;;;;;;;2.10;1.90;;;15.60;99.90;;;;;;5103866;28;20425;-43
2021/08/06 02:34:34;;;;;;;2.50;1.80;;;15.60;99.90;;;;;;5103892;28;20421;-43
2021/08/06 02:36:59;;;;;;;2.20;1.80;;;15.60;99.90;;;;;;5103800;28;20457;-43
2021/08/06 02:39:27;;;;;;;2.23;2.00;;;15.60;99.90;;;;;;5103331;28;20292;-43
2021/08/06 02:41:56;;;;;;;2.13;1.93;;;15.50;99.90;;;;;;5121326;28;20175;-43
2021/08/06 02:44:22;;;;;;;2.20;1.87;;;15.60;99.90;;;;;;5121620;28;20406;-43
2021/08/06 02:46:47;;;;;;;1.70;1.60;;;15.70;99.90;;;;;;5121075;28;20440;-43
2021/08/06 02:49:13;;;;;;;2.70;1.73;;;15.80;99.90;;;;;;5121345;28;20190;-42
2021/08/06 02:51:39;;;;;;;1.70;1.57;;;15.80;99.90;;;;;;5121275;28;20584;-43
2021/08/06 02:54:04;;;;;;;2.70;2.40;;;15.80;99.90;;;;;;5121526;28;20423;-43
2021/08/06 02:56:30;;;;;;;1.70;1.60;;;15.80;99.90;;;;;;5121193;28;20429;-44
2021/08/06 02:58:56;;;;;;;1.50;1.40;;;15.80;99.90;;;;;;5120820;28;20184;-44
2021/08/06 03:01:22;;;;;;;2.47;2.23;;;15.70;99.90;;;;;;5121251;28;20246;-43
2021/08/06 03:03:47;;;;;;;2.20;1.83;;;15.70;99.90;;;;;;5121284;28;20240;-43
2021/08/06 03:06:13;;;;;;;2.20;2.00;;;15.70;99.90;;;;;;5120900;28;20425;-43
2021/08/06 03:08:39;;;;;;;3.07;2.03;;;15.80;99.90;;;;;;5120897;28;20465;-43
2021/08/06 03:11:04;;;;;;;2.40;1.97;;;15.80;99.90;;;;;;5120783;28;20259;-43
2021/08/06 03:13:30;;;;;;;2.90;1.90;;;15.80;99.90;;;;;;5121187;28;20176;-43
2021/08/06 03:15:56;;;;;;;2.80;1.83;;;15.80;99.90;;;;;;5120763;28;20759;-43
2021/08/06 03:18:21;;;;;;;3.20;1.97;;;15.80;99.90;;;;;;5121024;28;20276;-43
2021/08/06 03:20:47;;;;;;;2.10;1.60;;;15.80;99.90;;;;;;5119836;28;20207;-43
2021/08/06 03:23:13;;;;;;;2.47;2.00;;;15.80;99.90;;;;;;5121069;28;20505;-43
2021/08/06 03:25:38;;;;;;;4.43;2.03;;;15.80;99.90;;;;;;5120304;28;20431;-43
2021/08/06 03:28:04;;;;;;;2.90;1.93;;;15.70;99.90;;;;;;5120593;28;20187;-43
2021/08/06 03:30:30;;;;;;;2.27;2.07;;;15.70;99.90;;;;;;5120713;28;20190;-43
2021/08/06 03:32:56;;;;;;;2.70;1.90;;;15.60;99.90;;;;;;5120665;28;20176;-44
2021/08/06 03:35:22;;;;;;;2.50;2.10;;;15.60;99.90;;;;;;5120610;28;20846;-43
2021/08/06 03:37:47;;;;;;;2.60;2.00;;;15.60;99.90;;;;;;5120203;28;20194;-42
2021/08/06 03:40:14;;;;;;;2.30;2.10;;;15.50;99.90;;;;;;5119274;28;20624;-43
2021/08/06 03:42:40;;;;;;;3.60;2.10;;;15.50;99.90;;;;;;5119382;28;20168;-43
2021/08/06 03:45:07;;;;;;;3.20;2.37;;;15.50;99.90;;;;;;5119045;28;20414;-43
2021/08/06 03:47:34;;;;;;;2.33;2.00;;;15.40;99.90;;;;;;5119187;28;20413;-43
2021/08/06 03:50:00;;;;;;;2.43;2.20;;;15.30;99.90;;;;;;5100955;28;20420;-43
2021/08/06 03:52:26;;;;;;;2.37;1.80;;;15.30;99.90;;;;;;5119023;28;20870;-43
2021/08/06 03:54:52;;;;;;;2.87;2.20;;;15.30;99.90;;;;;;5119711;28;20417;-43
2021/08/06 03:57:18;;;;;;;2.13;1.93;;;15.30;99.90;;;;;;5119899;28;20824;-43
2021/08/06 03:59:44;;;;;;;2.70;2.13;;;15.30;99.90;;;;;;5119704;28;20482;-43
2021/08/06 04:02:09;;;;;;;3.97;2.80;;;15.20;99.90;;;;;;5119873;28;20175;-45
2021/08/06 04:04:35;;;;;;;2.83;2.50;;;15.20;99.90;;;;;;5119853;28;20425;-45
2021/08/06 04:07:01;;;;;;;4.63;3.50;;;15.20;99.90;;;;;;5101605;28;20211;-45
2021/08/06 04:09:26;;;;;;;2.37;2.17;;;15.10;99.90;;;;;;5119007;28;20206;-45
2021/08/06 04:11:52;;;;;;;3.20;2.40;;;15.10;99.90;;;;;;5119818;28;20253;-45
2021/08/06 04:14:18;;;;;;;3.10;2.10;;;15.10;99.90;;;;;;5119260;28;20418;-45
2021/08/06 04:16:43;;;;;;;4.63;2.97;;;15.10;99.90;;;;;;5119742;28;20187;-44
2021/08/06 04:19:09;;;;;;;4.70;2.83;;;15.00;99.90;;;;;;5099687;28;20184;-45
2021/08/06 04:21:35;;;;;;;3.60;2.27;;;15.10;99.90;;;;;;5113424;28;20249;-45
2021/08/06 04:24:01;;;;;;;2.67;2.30;;;15.00;99.90;;;;;;5111588;28;20559;-45
2021/08/06 04:26:26;;;;;;;2.70;2.07;;;15.00;99.90;;;;;;5094006;28;20542;-45
2021/08/06 04:28:52;;;;;;;2.23;2.03;;;15.00;99.90;;;;;;5107091;28;20444;-45
2021/08/06 04:31:18;;;;;;;2.83;2.17;;;15.10;99.90;;;;;;5105472;28;20550;-45
2021/08/06 04:33:44;;;;;;;3.70;2.43;;;15.10;99.90;;;;;;5112057;28;20430;-45
2021/08/06 04:36:09;;;;;;;4.73;2.63;;;15.10;99.90;;;;;;5108183;28;20184;-45
2021/08/06 04:38:35;;;;;;;3.60;3.30;;;15.10;99.90;;;;;;5110186;28;20455;-45
2021/08/06 04:41:01;;;;;;;3.27;2.97;;;15.10;99.90;;;;;;5101099;28;20235;-45
2021/08/06 04:43:27;;;;;;;2.90;2.60;;;15.10;99.90;;;;;;5104576;28;20495;-45
2021/08/06 04:45:53;;;;;;;4.00;3.30;;;15.00;99.90;;;;;;5117096;28;20433;-45
2021/08/06 04:48:20;;;;;;;2.90;2.70;;;15.00;99.90;;;;;;5111773;28;20573;-45
2021/08/06 04:50:47;;;;;;;4.47;2.73;;;15.00;99.90;;;;;;5102686;28;20176;-45
2021/08/06 04:53:14;;;;;;;3.80;3.00;;;15.00;99.90;;;;;;5103035;28;20433;-45
2021/08/06 04:55:40;;;;;;;3.17;2.87;;;15.00;99.90;;;;;;5099906;28;20460;-45
2021/08/06 04:58:06;;;;;;;3.10;2.80;;;15.00;99.90;;;;;;5083265;28;20425;-45
2021/08/06 05:00:32;;;;;;;3.00;2.80;;;14.90;99.90;;;;;;5100058;28;20212;-45
2021/08/06 05:02:58;;;;;;;3.93;3.17;;;14.90;99.90;;;;;;5098282;28;20499;-45
2021/08/06 05:05:23;;;;;;;4.43;3.17;;;14.90;99.90;;;;;;5098632;28;20441;-45
2021/08/06 05:07:54;;;;;;;3.40;3.03;;;14.90;99.90;;;;;;5106109;28;20227;-45
2021/08/06 05:10:21;;;;;;;3.60;3.10;;;14.90;99.90;;;;;;5069879;28;20195;-45
2021/08/06 05:12:46;;;;;;;3.10;2.87;;;14.90;99.90;;;;;;5101163;28;20517;-45
2021/08/06 05:15:12;;;;;;;5.00;3.30;;;14.80;99.90;;;;;;5115244;28;20520;-52
2021/08/06 05:17:38;;;;;;;3.20;2.60;;;14.80;99.90;;;;;;5100096;28;20526;-45
2021/08/06 05:20:05;;;;;;;3.70;3.40;;;14.70;99.90;;;;;;5107812;28;20471;-46
2021/08/06 05:22:31;;;;;;;3.30;3.00;;;14.80;99.90;;;;;;5117742;27;20186;-45
2021/08/06 05:24:57;;;;;;;3.60;3.30;;;14.80;99.90;;;;;;5110341;28;20466;-45
2021/08/06 05:27:23;;;;;;;3.40;3.10;;;14.80;99.90;;;;;;5119764;27;20426;-49
2021/08/06 05:29:49;;;;;;;5.00;3.60;;;14.90;99.90;;;;;;5101967;28;20434;-45
2021/08/06 05:32:16;;;;;;;3.50;3.20;;;14.90;99.90;;;;;;5101261;28;20218;-46
2021/08/06 05:34:42;;;;;;;3.80;3.50;;;14.90;99.90;;;;;;5105519;28;20850;-46
2021/08/06 05:37:08;;;;;;;4.27;2.87;;;14.90;99.90;;;;;;5108231;28;20434;-46
2021/08/06 05:39:33;;;;;;;4.23;3.80;;;15.00;99.90;;;;;;5101209;28;20219;-46
2021/08/06 05:42:01;;;;;;;3.90;3.60;;;15.10;99.90;;;;;;5108257;28;20180;-45
2021/08/06 05:44:26;;;;;;;3.53;2.97;;;15.20;99.90;;;;;;5109261;28;20199;-46
2021/08/06 05:46:52;;;;;;;3.33;3.03;;;15.20;99.90;;;;;;5115506;28;20421;-45
2021/08/06 05:49:17;;;;;;;3.03;2.73;;;15.30;99.90;;;;;;5115232;28;20194;-46
2021/08/06 05:51:44;;;;;;;4.33;3.00;;;15.40;99.90;;;;;;5114403;28;20172;-46
2021/08/06 05:54:10;;;;;;;4.20;2.77;;;15.50;99.90;;;;;;5110373;28;20200;-45
2021/08/06 05:56:36;;;;;;;3.10;2.63;;;15.50;99.90;;;;;;5100811;28;20434;-46
2021/08/06 05:59:02;;;;;;;3.27;2.70;;;15.60;99.90;;;;;;5099060;28;20465;-46
2021/08/06 06:01:29;;;;;;;3.17;2.87;;;15.70;99.90;;;;;;5104132;28;20438;-46
2021/08/06 06:03:55;;;;;;;3.00;2.50;;;15.70;99.90;;;;;;5101917;28;20180;-46
2021/08/06 06:06:22;;;;;;;2.73;2.53;;;15.70;99.90;;;;;;5098482;28;20452;-46
2021/08/06 06:08:49;;;;;;;3.10;2.60;;;15.80;99.90;;;;;;5093223;28;20429;-45
2021/08/06 06:11:14;;;;;;;3.67;2.60;;;15.80;99.90;;;;;;5106230;28;20559;-45
2021/08/06 06:13:40;;;;;;;3.90;3.20;;;15.70;99.90;;;;;;5111714;28;20903;-45
2021/08/06 06:16:07;;;;;;;3.10;2.77;;;15.60;99.90;;;;;;5086261;28;20180;-45
2021/08/06 06:18:33;;;;;;;12.73;4.13;;;15.60;99.90;;;;;;5109473;28;20736;-45
2021/08/06 06:20:59;;;;;;;4.80;3.67;;;15.40;99.90;;;;;;5113337;28;20479;-45
2021/08/06 06:23:25;;;;;;;4.40;4.00;;;15.50;99.90;;;;;;5113094;28;20465;-46
2021/08/06 06:25:51;;;;;;;4.10;2.77;;;15.50;99.90;;;;;;5097727;28;20422;-46
2021/08/06 06:28:17;;;;;;;3.60;3.30;;;15.60;99.90;;;;;;5111035;28;20444;-45
2021/08/06 06:30:43;;;;;;;4.93;3.17;;;15.70;99.90;;;;;;5097381;28;20190;-46
2021/08/06 06:33:08;;;;;;;3.27;2.60;;;15.90;99.90;;;;;;5112326;28;20532;-45
2021/08/06 06:35:34;;;;;;;4.97;2.60;;;16.10;99.90;;;;;;5099727;28;20438;-46
2021/08/06 06:38:01;;;;;;;4.40;2.97;;;16.20;99.90;;;;;;5085340;28;20184;-46
2021/08/06 06:40:27;;;;;;;2.70;2.50;;;16.30;99.90;;;;;;5102683;28;20477;-45
2021/08/06 06:42:53;;;;;;;2.70;2.50;;;16.40;99.90;;;;;;5100703;28;20553;-46
2021/08/06 06:45:20;;;;;;;2.30;2.10;;;16.40;99.90;;;;;;5108218;28;20524;-45
2021/08/06 06:47:48;;;;;;;2.20;2.00;;;16.60;99.90;;;;;;5109277;28;20541;-45
2021/08/06 06:50:17;;;;;;;2.33;2.00;;;16.70;99.90;;;;;;5113458;28;20527;-46
2021/08/06 06:52:43;;;;;;;2.50;1.80;;;17.10;99.90;;;;;;5111679;28;20442;-45
2021/08/06 06:55:10;;;;;;;3.80;2.30;;;17.50;99.90;;;;;;5107465;28;20441;-45
2021/08/06 06:57:51;;;;;;;3.23;2.27;;;17.40;99.90;;;;;;5101381;28;20436;-45
2021/08/06 07:00:29;;;;;;;1.97;1.77;;;17.70;99.90;;;;;;5117271;28;20897;-45
2021/08/06 07:02:55;;;;;;;2.30;1.93;;;17.80;99.90;;;;;;5108697;28;20840;-45
2021/08/06 07:05:21;;;;;;;2.17;1.70;;;17.80;99.90;;;;;;5111243;28;20429;-45
2021/08/06 07:07:47;;;;;;;1.97;1.73;;;18.10;99.90;;;;;;5101994;28;20487;-44
2021/08/06 07:10:13;;;;;;;2.60;1.53;;;18.10;99.90;;;;;;5081617;28;20449;-45
2021/08/06 07:12:42;;;;;;;3.10;1.80;;;18.10;99.90;;;;;;5100070;28;20704;-45
2021/08/06 07:15:09;;;;;;;4.07;2.07;;;18.10;99.90;;;;;;5099971;28;20430;-45
2021/08/06 07:17:37;;;;;;;2.73;2.40;;;18.00;99.90;;;;;;5099737;28;20421;-45
2021/08/06 07:20:04;;;;;;;2.10;1.90;;;17.70;99.90;;;;;;5099028;28;20768;-44
2021/08/06 07:22:30;;;;;;;2.77;2.07;;;17.90;99.90;;;;;;5080984;28;21111;-45
2021/08/06 07:24:56;;;;;;;3.43;1.90;;;18.00;99.90;;;;;;5099503;28;20553;-45
2021/08/06 07:27:22;;;;;;;4.20;2.30;;;17.80;99.90;;;;;;5098984;28;20415;-45
2021/08/06 07:29:47;;;;;;;2.30;1.80;;;17.90;99.90;;;;;;5099024;28;20257;-45
2021/08/06 07:32:13;;;;;;;3.10;1.90;;;18.10;99.90;;;;;;5079649;28;20431;-45
2021/08/06 07:34:39;;;;;;;2.03;1.80;;;17.90;99.90;;;;;;5097168;28;20486;-45
2021/08/06 07:37:04;;;;;;;2.50;2.20;;;17.90;99.90;;;;;;5098160;28;20437;-44
2021/08/06 07:39:30;;;;;;;3.10;2.30;;;17.70;99.90;;;;;;5097998;28;20483;-44
2021/08/06 07:41:56;;;;;;;3.17;2.43;;;17.40;99.90;;;;;;5096835;28;20615;-44
2021/08/06 07:44:22;;;;;;;2.50;2.23;;;17.40;99.90;;;;;;5097265;28;20187;-44
2021/08/06 07:46:48;;;;;;;2.70;2.13;;;17.40;99.90;;;;;;5096384;28;20183;-45
2021/08/06 07:49:13;;;;;;;2.33;2.00;;;17.50;99.90;;;;;;5095592;28;20429;-45
2021/08/06 07:51:39;;;;;;;3.40;1.97;;;17.70;99.90;;;;;;5097550;28;20414;-44
2021/08/06 07:54:06;;;;;;;2.73;1.70;;;17.90;99.90;;;;;;5096154;28;20644;-45
2021/08/06 07:56:31;;;;;;;3.50;1.67;;;18.00;99.90;;;;;;5095167;28;20529;-45
2021/08/06 07:58:57;;;;;;;3.80;2.00;;;18.10;99.90;;;;;;5095955;28;20892;-45
2021/08/06 08:01:23;;;;;;;2.17;1.50;;;18.10;99.90;;;;;;5095927;28;20199;-44
2021/08/06 08:03:49;;;;;;;3.00;1.40;;;18.10;99.90;;;;;;5097143;28;20535;-44
2021/08/06 08:06:14;;;;;;;2.10;1.17;;;18.10;99.90;;;;;;5095937;28;20483;-45
2021/08/06 08:08:41;;;;;;;1.43;1.17;;;18.20;99.90;;;;;;5096529;28;20305;-45
2021/08/06 08:11:07;;;;;;;1.90;1.10;;;18.90;99.90;;;;;;5097512;28;20259;-45
2021/08/06 08:13:32;;;;;;;1.23;0.97;;;19.30;99.90;;;;;;5079794;28;20693;-45
2021/08/06 08:15:58;;;;;;;1.50;1.23;;;19.50;99.90;;;;;;5096727;28;20452;-45
2021/08/06 08:18:24;;;;;;;1.50;0.90;;;19.70;99.90;;;;;;5098277;28;20196;-45
2021/08/06 08:20:50;;;;;;;2.30;0.97;;;20.00;99.90;;;;;;5096625;28;20200;-45
2021/08/06 08:23:17;;;;;;;2.17;1.00;;;20.40;99.20;;;;;;5097348;28;20463;-45
2021/08/06 08:25:43;;;;;;;1.23;0.77;;;20.60;98.20;;;;;;5097772;28;20685;-45
2021/08/06 08:28:09;;;;;;;2.30;0.70;;;20.10;98.10;;;;;;5096022;28;20816;-45
2021/08/06 08:30:35;;;;;;;1.87;0.70;;;19.80;97.60;;;;;;5096308;28;20436;-45
2021/08/06 08:33:01;;;;;;;1.47;0.70;;;19.50;97.60;;;;;;5097741;28;20192;-45
2021/08/06 08:35:27;;;;;;;1.30;0.80;;;19.70;97.60;;;;;;5096274;28;20705;-46
2021/08/06 08:37:53;;;;;;;1.57;0.90;;;19.70;98.10;;;;;;5097003;28;20428;-46
2021/08/06 08:40:19;;;;;;;1.00;0.73;;;20.20;97.20;;;;;;5096413;28;20208;-46
2021/08/06 08:42:44;;;;;;;1.20;0.70;;;20.50;97.30;;;;;;5096147;28;20237;-46
2021/08/06 08:45:11;;;;;;;1.50;0.80;;;20.80;95.90;;;;;;5096300;28;20430;-46
2021/08/06 08:47:37;;;;;;;1.40;0.77;;;20.50;96.20;;;;;;5096975;28;20516;-45
2021/08/06 08:50:05;;;;;;;1.10;0.70;;;20.50;96.00;;;;;;5096097;28;20510;-46
2021/08/06 08:52:32;;;;;;;2.10;0.80;;;20.30;96.00;;;;;;5096923;28;20788;-46
2021/08/06 08:54:58;;;;;;;5.10;1.20;;;20.20;95.90;;;;;;5096558;28;20693;-46
2021/08/06 08:57:24;;;;;;;1.20;0.87;;;20.40;96.20;;;;;;5096559;28;20824;-46
2021/08/06 08:59:52;;;;;;;1.80;1.00;;;20.80;95.70;;;;;;5078629;28;20859;-46
2021/08/06 09:02:17;;;;;;;2.30;1.10;;;21.20;94.80;;;;;;5078268;28;20422;-46
2021/08/06 09:04:45;;;;;;;2.17;1.20;;;21.10;93.20;;;;;;5096014;28;20433;-46
2021/08/06 09:07:30;;;;;;;1.77;0.97;;;20.90;93.80;;;;;;5097078;28;20172;-46
2021/08/06 09:10:16;;;;;;;1.50;0.90;;;20.70;94.10;;;;;;5097591;28;20418;-46
2021/08/06 09:12:52;;;;;;;2.60;1.00;;;21.00;93.50;;;;;;5097467;28;20422;-46
2021/08/06 09:15:38;;;;;;;2.37;1.20;;;21.10;93.70;;;;;;5097560;28;20414;-46
2021/08/06 09:18:03;;;;;;;2.50;1.27;;;20.80;93.40;;;;;;5096093;28;20414;-46
2021/08/06 09:20:41;;;;;;;2.10;1.40;;;21.60;93.50;;;;;;5096140;28;20470;-45
2021/08/06 09:23:07;;;;;;;2.20;1.67;;;21.60;91.70;;;;;;5097534;28;20180;-46
2021/08/06 09:25:36;;;;;;;1.80;1.00;;;21.40;92.00;;;;;;5098661;28;20668;-46
2021/08/06 09:28:03;;;;;;;2.20;1.10;;;21.10;91.80;;;;;;5116254;28;20282;-49
2021/08/06 09:30:38;;;;;;;1.53;1.00;;;20.50;92.00;;;;;;5115977;28;20414;-46
2021/08/06 09:33:07;;;;;;;2.10;1.13;;;20.10;92.60;;;;;;5080695;28;20558;-46
2021/08/06 09:35:34;;;;;;;2.93;1.40;;;20.10;92.80;;;;;;5108456;28;20442;-46
2021/08/06 09:38:00;;;;;;;2.80;1.60;;;20.20;92.70;;;;;;5112006;28;20700;-46
2021/08/06 09:40:29;;;;;;;1.80;1.30;;;20.60;92.60;;;;;;5116014;28;20487;-46
2021/08/06 09:42:57;;;;;;;3.00;1.37;;;20.90;91.40;;;;;;5116238;28;20436;-46
2021/08/06 09:45:37;;;;;;;2.50;1.40;;;20.70;90.90;;;;;;5116386;28;20417;-46
2021/08/06 09:48:03;;;;;;;1.97;1.37;;;20.90;90.50;;;;;;5097607;28;20427;-46
2021/08/06 09:50:33;;;;;;;2.50;1.40;;;21.80;89.70;;;;;;5097669;28;20472;-46
2021/08/06 09:52:59;;;;;;;1.73;1.37;;;22.80;88.10;;;;;;5096825;28;20505;-46
2021/08/06 09:55:28;;;;;;;4.10;1.30;;;23.70;85.20;;;;;;5096808;28;20457;-46
2021/08/06 09:57:55;;;;;;;1.30;0.90;;;23.10;84.60;;;;;;5062291;28;20521;-46
2021/08/06 10:00:23;;;;;;;2.00;1.20;;;22.90;85.90;;;;;;5078284;28;20531;-46
2021/08/06 10:02:49;;;;;;;3.07;1.27;;;22.50;86.80;;;;;;5096782;28;20419;-46
2021/08/06 10:05:17;;;;;;;2.53;1.20;;;22.70;87.50;;;;;;5096442;28;20453;-47
2021/08/06 10:07:44;;;;;;;1.50;1.17;;;22.60;87.60;;;;;;5095708;28;20415;-47
2021/08/06 10:10:19;;;;;;;2.70;1.63;;;21.40;87.50;;;;;;5096956;28;20504;-48
2021/08/06 10:12:46;;;;;;;1.50;1.00;;;21.50;90.20;;;;;;5111249;28;20428;-47
2021/08/06 10:15:13;;;;;;;1.90;1.20;;;21.00;89.90;;;;;;5115890;28;20690;-47
2021/08/06 10:17:39;;;;;;;2.37;1.50;;;20.60;90.50;;;;;;5116613;28;20410;-47
2021/08/06 10:20:07;;;;;;;2.00;1.30;;;20.80;91.10;;;;;;5096868;28;20747;-47
2021/08/06 10:22:33;;;;;;;1.80;1.20;;;21.00;91.20;;;;;;5096718;28;20418;-48
2021/08/06 10:25:02;;;;;;;1.13;1.00;;;21.20;91.00;;;;;;5112617;28;20477;-47
2021/08/06 10:27:29;;;;;;;3.83;1.50;;;20.90;91.00;;;;;;5115439;28;20229;-47
2021/08/06 10:30:08;;;;;;;2.87;1.40;;;20.20;92.00;;;;;;5098961;28;20500;-48
2021/08/06 10:32:34;;;;;;;2.77;1.43;;;19.90;92.00;;;;;;5119548;28;20477;-47
2021/08/06 10:35:11;;;;;;;2.23;1.50;;;19.70;92.90;;;;;;5118849;28;20425;-47
2021/08/06 10:37:49;;;;;;;1.73;1.20;;;19.70;93.40;;;;;;5112783;28;20446;-48
2021/08/06 10:43:35;;;;;;;2.53;1.33;;;19.80;93.20;;;;;;5120250;28;20473;-47
2021/08/06 10:46:02;;;;;;;2.17;1.20;;;20.30;93.10;;;;;;5099734;28;20425;-47
2021/08/06 10:48:41;;;;;;;1.70;1.17;;;20.40;92.40;;;;;;5119365;28;20431;-47
2021/08/06 10:51:15;;;;;;;1.50;1.07;;;20.50;91.90;;;;;;5118839;28;20708;-47
2021/08/06 10:54:08;;;;;;;1.83;0.93;;;20.90;92.00;;;;;;5119749;28;20421;-48
2021/08/06 10:56:35;;;;;;;2.73;1.50;;;21.10;91.50;;;;;;5117847;28;20436;-47
2021/08/06 10:59:10;;;;;;;1.93;1.37;;;21.20;90.80;;;;;;5118188;28;20873;-47
2021/08/06 11:01:38;;;;;;;2.97;1.20;;;21.10;90.90;;;;;;5118708;28;20601;-47
2021/08/06 11:04:14;;;;;;;3.33;0.80;;;20.90;90.40;;;;;;5119361;28;20413;-47
2021/08/06 11:06:47;;;;;;;1.90;1.23;;;21.60;89.20;;;;;;5119674;28;20423;-47
2021/08/06 11:09:26;;;;;;;4.93;1.40;;;22.40;87.80;;;;;;5119119;28;20806;-47
2021/08/06 11:11:58;;;;;;;2.60;1.40;;;23.40;84.20;;;;;;5119578;28;20428;-47
2021/08/06 11:14:32;;;;;;;2.13;1.40;;;24.10;81.70;;;;;;5119615;28;20444;-47
2021/08/06 11:17:15;;;;;;;1.83;1.47;;;22.80;82.20;;;;;;5101070;28;20433;-47
2021/08/06 11:19:45;;;;;;;2.47;1.30;;;22.80;83.70;;;;;;5118326;28;20464;-48
2021/08/06 11:22:21;;;;;;;2.30;1.30;;;23.10;82.20;;;;;;5117715;28;20417;-48
2021/08/06 11:24:53;;;;;;;2.37;1.33;;;23.70;82.70;;;;;;5118941;28;20489;-47
2021/08/06 11:27:20;;;;;;;2.37;1.30;;;24.70;79.40;;;;;;5120135;28;20433;-47
2021/08/06 11:30:03;;;;;;;2.93;1.90;;;25.30;76.90;;;;;;5118680;28;20413;-47
2021/08/06 11:32:31;;;;;;;7.50;1.80;;;25.50;76.30;;;;;;5117245;28;20421;-48
2021/08/06 11:35:02;;;;;;;3.90;1.47;;;25.50;74.00;;;;;;5117158;28;20509;-48
2021/08/06 11:37:52;;;;;;;4.80;2.10;;;25.40;74.40;;;;;;5117973;28;20409;-47
2021/08/06 11:40:19;;;;;;;2.57;1.30;;;25.10;75.30;;;;;;5116363;28;20440;-48
2021/08/06 11:42:46;;;;;;;4.97;1.77;;;24.30;76.70;;;;;;5118345;28;20422;-47
2021/08/06 11:45:14;;;;;;;4.80;1.63;;;23.70;78.40;;;;;;5118303;28;20494;-47
2021/08/06 11:47:47;;;;;;;1.60;1.30;;;23.20;79.90;;;;;;5119116;28;20703;-48
2021/08/06 11:50:15;;;;;;;1.87;1.37;;;22.70;81.30;;;;;;5119161;28;20430;-48
2021/08/06 11:52:49;;;;;;;3.23;2.30;;;22.90;82.10;;;;;;5118263;28;20928;-48
2021/08/06 11:55:19;;;;;;;2.73;1.40;;;22.50;83.20;;;;;;5118701;28;20422;-47
2021/08/06 11:57:51;;;;;;;3.07;1.47;;;22.40;82.90;;;;;;5099675;28;20436;-48
2021/08/06 12:00:38;;;;;;;3.00;1.50;;;22.10;83.80;;;;;;5117320;28;20480;-48
2021/08/06 12:03:15;;;;;;;3.23;1.03;;;21.80;84.40;;;;;;5117891;28;20540;-46
2021/08/06 12:05:45;;;;;;;1.63;1.27;;;22.20;85.10;;;;;;5117990;28;20417;-47
2021/08/06 12:08:18;;;;;;;2.23;1.43;;;22.80;84.20;;;;;;5117393;28;20570;-48
2021/08/06 12:10:46;;;;;;;3.57;1.20;;;23.30;81.90;;;;;;5099676;28;20444;-46
2021/08/06 12:13:13;;;;;;;1.93;1.13;;;23.70;80.00;;;;;;5116724;28;20409;-46
2021/08/06 12:15:39;;;;;;;2.60;1.27;;;24.00;79.00;;;;;;5118157;28;20418;-46
2021/08/06 12:18:16;;;;;;;1.47;1.03;;;24.30;76.20;;;;;;5118048;28;20433;-46
2021/08/06 12:20:48;;;;;;;1.97;1.00;;;24.60;75.70;;;;;;5117940;28;20464;-47
2021/08/06 12:23:18;;;;;;;2.37;1.53;;;24.70;74.80;;;;;;5118618;28;20454;-47
2021/08/06 12:26:03;;;;;;;1.10;0.80;;;24.80;75.10;;;;;;5118543;28;20672;-46
2021/08/06 12:28:30;;;;;;;1.57;0.90;;;25.20;74.10;;;;;;5100672;28;20505;-46
2021/08/06 12:31:17;;;;;;;1.70;1.10;;;25.90;72.20;;;;;;5117785;28;20873;-45
2021/08/06 12:33:45;;;;;;;2.30;1.07;;;26.60;70.40;;;;;;5099977;28;20417;-46
2021/08/06 12:36:12;;;;;;;2.80;1.50;;;27.60;66.20;;;;;;5117902;28;20498;-46
2021/08/06 12:38:38;;;;;;;1.80;1.20;;;28.30;64.00;;;;;;5117765;28;20452;-46
2021/08/06 12:41:04;;;;;;;3.20;1.20;;;28.60;59.90;;;;;;5099853;28;20555;-47
2021/08/06 12:43:30;;;;;;;2.13;1.30;;;28.80;60.20;;;;;;5118542;28;20183;-46
2021/08/06 12:46:12;;;;;;;2.57;1.30;;;28.90;59.00;;;;;;5118106;28;20907;-45
2021/08/06 12:49:04;;;;;;;2.00;1.40;;;27.10;58.10;;;;;;5100777;28;20424;-45
2021/08/06 12:51:30;;;;;;;2.10;0.97;;;26.50;60.40;;;;;;5118249;28;20421;-45
2021/08/06 12:53:56;;;;;;;3.30;1.80;;;26.90;60.10;;;;;;5117133;28;20409;-39
2021/08/06 12:56:21;;;;;;;2.73;1.13;;;26.60;60.50;;;;;;5117948;28;20434;-43